createdAt,value
2022-11-13T07:18:08.843Z,11.80
2022-11-13T07:20:58.236Z,11.90
2022-11-13T07:23:49.578Z,12.00
2022-11-13T07:26:39.172Z,12.20
2022-11-13T07:29:29.707Z,12.30
2022-11-13T07:32:18.956Z,12.30
2022-11-13T07:35:10.345Z,12.40
2022-11-13T07:37:59.619Z,12.40
2022-11-13T07:40:48.746Z,12.40
2022-11-13T07:43:37.618Z,12.30
2022-11-13T07:46:28.383Z,12.30
2022-11-13T07:49:17.468Z,12.30
2022-11-13T07:52:07.048Z,12.20
2022-11-13T07:54:56.425Z,12.20
2022-11-13T07:57:45.928Z,12.20
2022-11-13T08:00:37.422Z,12.10
2022-11-13T08:03:28.722Z,12.10
2022-11-13T08:06:17.902Z,12.10
2022-11-13T08:09:07.409Z,12.10
2022-11-13T08:11:56.403Z,12.10
2022-11-13T08:14:45.381Z,12.10
2022-11-13T08:17:34.932Z,12.10
2022-11-13T08:20:26.050Z,12.20
2022-11-13T08:23:15.336Z,12.20
2022-11-13T08:26:07.046Z,12.30
2022-11-13T08:28:56.592Z,12.40
2022-11-13T08:31:45.963Z,12.40
2022-11-13T08:48:44.653Z,13.60
2022-11-13T08:51:33.396Z,13.70
2022-11-13T08:54:24.181Z,13.80
2022-11-13T08:57:13.345Z,13.80
2022-11-13T09:00:02.711Z,13.90
2022-11-13T09:02:56.048Z,13.90
2022-11-13T09:05:45.068Z,14.00
2022-11-13T09:08:34.494Z,14.10
2022-11-13T09:11:28.042Z,14.10
2022-11-13T09:14:17.117Z,14.20
2022-11-13T09:17:06.159Z,14.00
2022-11-13T09:19:55.771Z,13.90
2022-11-13T09:22:46.855Z,13.80
2022-11-13T09:25:38.214Z,13.70
2022-11-13T09:28:29.172Z,13.60
2022-11-13T09:31:19.147Z,13.60
2022-11-13T09:34:07.932Z,13.60
2022-11-13T09:36:57.032Z,13.60
2022-11-13T09:39:46.303Z,13.50
2022-11-13T09:42:36.763Z,13.50
2022-11-13T09:45:28.203Z,13.40
2022-11-13T09:48:27.613Z,13.40
2022-11-13T09:51:19.839Z,13.40
2022-11-13T09:54:13.841Z,13.40
2022-11-13T09:57:11.108Z,13.50
2022-11-13T10:00:02.914Z,13.50
2022-11-13T10:03:03.263Z,13.60
2022-11-13T10:06:00.648Z,13.60
2022-11-13T10:08:57.700Z,13.60
2022-11-13T10:11:54.780Z,13.70
2022-11-13T10:14:48.008Z,13.70
2022-11-13T10:17:40.485Z,13.80
2022-11-13T10:20:36.115Z,14.00
2022-11-13T10:23:30.838Z,14.20
2022-11-13T10:26:22.997Z,14.30
2022-11-13T10:29:15.178Z,14.40
2022-11-13T10:32:18.238Z,14.40
2022-11-13T10:38:08.938Z,14.70
2022-11-13T10:41:08.135Z,14.90
2022-11-13T10:44:00.972Z,15.10
2022-11-13T10:46:50.853Z,15.30
2022-11-13T10:49:40.411Z,15.30
2022-11-13T10:52:30.515Z,15.20
2022-11-13T10:55:27.222Z,14.80
2022-11-13T10:58:18.337Z,14.70
2022-11-13T11:04:06.587Z,14.30
2022-11-13T11:07:19.137Z,14.30
2022-11-13T11:10:09.158Z,14.30
2022-11-13T11:13:04.488Z,14.20
2022-11-13T11:15:57.554Z,13.90
2022-11-13T11:18:53.119Z,13.90
2022-11-13T11:21:44.727Z,14.00
2022-11-13T11:24:38.505Z,14.20
2022-11-13T11:27:34.544Z,14.20
2022-11-13T11:30:26.750Z,14.20
2022-11-13T11:36:19.533Z,13.70
2022-11-13T11:39:27.500Z,13.70
2022-11-13T11:42:30.323Z,13.70
2022-11-13T11:45:31.905Z,13.70
2022-11-13T11:48:23.374Z,13.80
2022-11-13T11:51:23.125Z,13.80
2022-11-13T11:54:23.232Z,14.10
2022-11-13T11:57:28.244Z,14.20
2022-11-13T12:00:20.024Z,14.40
2022-11-13T12:03:43.030Z,14.60
2022-11-13T12:06:42.938Z,15.10
2022-11-13T12:09:35.238Z,15.30
2022-11-13T12:12:34.284Z,15.30
2022-11-13T12:15:29.433Z,15.20
2022-11-13T12:18:28.091Z,15.20
2022-11-13T12:21:24.822Z,15.10
2022-11-13T12:24:29.096Z,15.10
2022-11-13T12:27:26.444Z,14.90
2022-11-13T12:30:19.305Z,14.80
2022-11-13T12:33:23.228Z,14.70
2022-11-13T12:36:14.605Z,14.90
2022-11-13T12:39:14.687Z,15.10
2022-11-13T12:42:21.088Z,15.30
2022-11-13T12:45:19.968Z,15.50
2022-11-13T12:48:22.930Z,15.70
2022-11-13T12:51:14.130Z,15.80
2022-11-13T12:54:05.992Z,15.90
2022-11-13T12:56:55.639Z,15.90
2022-11-13T12:59:46.898Z,15.80
2022-11-13T13:02:47.406Z,15.70
2022-11-13T13:06:06.802Z,15.40
2022-11-13T13:09:08.629Z,15.40
2022-11-13T13:12:07.117Z,15.40
2022-11-13T13:15:13.641Z,15.50
2022-11-13T13:18:10.637Z,15.80
2022-11-13T13:21:07.090Z,16.00
2022-11-13T13:23:56.802Z,16.00
2022-11-13T13:26:48.944Z,15.70
2022-11-13T13:29:43.895Z,15.40
2022-11-13T13:32:43.016Z,15.60
2022-11-13T13:35:39.139Z,15.10
2022-11-13T13:38:34.702Z,15.10
2022-11-13T13:41:33.861Z,15.10
2022-11-13T13:44:47.535Z,15.20
2022-11-13T13:47:40.657Z,15.20
2022-11-13T13:50:33.795Z,15.20
2022-11-13T13:53:27.311Z,15.40
2022-11-13T13:56:17.320Z,15.60
2022-11-13T13:59:07.954Z,15.70
2022-11-13T14:02:00.088Z,15.60
2022-11-13T14:04:50.712Z,15.60
2022-11-13T14:07:48.329Z,15.50
2022-11-13T14:10:39.239Z,15.50
2022-11-13T14:13:30.752Z,15.40
2022-11-13T14:16:20.456Z,15.40
2022-11-13T14:19:13.635Z,15.30
2022-11-13T14:22:06.590Z,15.30
2022-11-13T14:24:58.802Z,15.20
2022-11-13T14:27:48.293Z,15.20
2022-11-13T14:30:37.249Z,15.10
2022-11-13T14:33:31.286Z,15.00
2022-11-13T14:36:31.812Z,15.00
2022-11-13T14:39:26.203Z,15.00
2022-11-13T14:42:20.074Z,15.00
2022-11-13T14:45:17.761Z,15.10
2022-11-13T14:48:20.275Z,15.10
2022-11-13T14:51:26.171Z,15.10
2022-11-13T14:54:53.311Z,15.20
2022-11-13T14:57:49.236Z,15.20
2022-11-13T15:00:40.874Z,15.20
2022-11-13T15:03:31.957Z,15.20
2022-11-13T15:06:23.799Z,15.10
2022-11-13T15:09:17.255Z,15.10
2022-11-13T15:12:07.124Z,15.10
2022-11-13T15:14:56.499Z,15.10
2022-11-13T15:17:46.053Z,15.00
2022-11-13T15:20:35.276Z,15.00
2022-11-13T15:23:26.668Z,15.00
2022-11-13T15:26:17.188Z,14.90
2022-11-13T15:29:06.485Z,14.90
2022-11-13T15:31:56.249Z,14.90
2022-11-13T15:34:45.782Z,14.90
2022-11-13T15:37:35.103Z,14.80
2022-11-13T15:40:24.482Z,14.80
2022-11-13T15:43:21.314Z,14.80
2022-11-13T15:46:14.908Z,14.70
2022-11-13T15:49:06.000Z,14.70
2022-11-13T15:51:55.601Z,14.70
2022-11-13T15:54:44.921Z,14.60
2022-11-13T19:58:57.271Z,14.40
2022-11-13T20:01:46.221Z,14.40
2022-11-13T21:09:48.798Z,13.90
2022-11-13T21:12:39.038Z,14.00
2022-11-13T21:15:29.451Z,13.90
2022-11-13T21:18:18.563Z,13.90
2022-11-13T21:21:09.139Z,13.90
2022-11-13T21:24:01.762Z,13.80
2022-11-13T21:26:51.698Z,13.80
2022-11-13T21:29:45.554Z,13.80
2022-11-13T21:32:36.499Z,13.70
2022-11-13T21:35:26.143Z,13.60
2022-11-13T21:38:15.262Z,13.70
2022-11-13T21:41:25.967Z,13.70
2022-11-13T21:44:15.486Z,13.70
2022-11-13T21:47:05.020Z,13.70
2022-11-13T21:49:53.679Z,13.70
2022-11-13T21:52:42.788Z,13.70
2022-11-13T21:55:32.185Z,13.70
2022-11-13T21:58:31.352Z,13.70
2022-11-13T22:01:23.079Z,13.70
2022-11-13T22:04:12.576Z,13.70
2022-11-13T22:07:02.530Z,13.70
2022-11-13T22:09:51.581Z,13.70
2022-11-13T22:12:41.262Z,13.70
2022-11-13T22:15:32.442Z,13.70
2022-11-13T22:18:21.705Z,13.70
2022-11-13T22:21:12.354Z,13.70
2022-11-13T22:24:02.821Z,13.60
2022-11-13T22:26:52.162Z,13.60
2022-11-13T22:29:41.429Z,13.60
2022-11-13T22:32:32.206Z,13.60
2022-11-13T22:35:21.474Z,13.60
2022-11-13T22:38:11.008Z,13.60
2022-11-13T22:41:05.557Z,13.60
2022-11-13T22:43:55.834Z,13.60
2022-11-13T22:46:44.776Z,13.60
2022-11-13T22:49:35.397Z,13.60
2022-11-13T22:52:24.543Z,13.60
2022-11-13T22:55:13.810Z,13.60
2022-11-13T22:58:03.412Z,13.50
2022-11-13T23:00:52.216Z,13.50
2022-11-13T23:03:43.619Z,13.50
2022-11-13T23:06:36.425Z,13.60
2022-11-13T23:09:27.433Z,13.50
2022-11-13T23:12:16.628Z,13.50
2022-11-13T23:15:06.605Z,13.50
2022-11-13T23:17:55.404Z,13.50
2022-11-13T23:20:45.413Z,13.50
2022-11-13T23:23:36.938Z,13.50
2022-11-13T23:26:26.601Z,13.40
2022-11-13T23:29:16.235Z,13.40
2022-11-13T23:32:05.329Z,13.40
2022-11-13T23:34:59.168Z,13.40
2022-11-13T23:37:49.514Z,13.40
2022-11-13T23:40:40.153Z,13.40
2022-11-13T23:44:02.129Z,13.30
